Time;durP1;ratioP1;P1;durP2;ratioP2;P2;SDS_P1;SDS_P2;PMS_P1;PMS_P2;Temp;Humidity;BMP_temperature;BMP_pressure;BME280_temperature;BME280_humidity;BME280_pressure;Samples;Min_cycle;Max_cycle;Signal;HPM_P1;HPM_P2
2022/10/04 00:00:08;;;;;;;0.40;0.30;;;;;;;13.36;71.14;95411.06;5112965;28;20419;-54
2022/10/04 00:02:37;;;;;;;0.40;0.40;;;;;;;12.60;71.16;95385.22;5112725;28;20468;-54
2022/10/04 00:05:12;;;;;;;0.40;0.30;;;;;;;11.60;75.09;95421.22;5112861;28;20794;-54
2022/10/04 00:07:47;;;;;;;0.40;0.30;;;;;;;11.33;78.94;95429.53;5112795;28;20429;-54
2022/10/04 00:10:21;;;;;;;0.87;0.87;;;;;;;11.87;77.22;95428.81;5112465;28;20423;-55
2022/10/04 00:12:52;;;;;;;0.40;0.20;;;;;;;12.27;74.29;95430.44;5112739;28;20427;-55
2022/10/04 00:15:25;;;;;;;0.40;0.20;;;;;;;11.99;73.18;95341.63;5112954;28;20426;-54
2022/10/04 00:18:08;;;;;;;0.40;0.20;;;;;;;12.46;73.06;95426.81;5112667;28;20785;-54
2022/10/04 00:21:06;;;;;;;0.40;0.30;;;;;;;12.77;73.69;95427.38;5112396;28;20425;-54
2022/10/04 00:23:43;;;;;;;0.40;0.20;;;;;;;12.89;71.23;95429.66;5111837;27;20442;-54
2022/10/04 00:26:30;;;;;;;0.50;0.30;;;;;;;12.36;72.68;95432.22;5116510;28;20437;-54
2022/10/04 00:28:58;;;;;;;0.40;0.20;;;;;;;12.28;72.99;95432.00;5116332;28;20433;-54
2022/10/04 00:31:27;;;;;;;0.37;0.20;;;;;;;12.35;73.71;95427.16;5116458;28;20426;-54
2022/10/04 00:34:37;;;;;;;0.40;0.30;;;;;;;12.65;72.57;95427.72;5116353;28;20939;-54
2022/10/04 00:37:15;;;;;;;0.40;0.30;;;;;;;12.80;72.25;95429.44;5116124;28;20782;-54
2022/10/04 00:39:46;;;;;;;0.40;0.20;;;;;;;12.58;73.47;95434.44;5116285;28;20426;-55
2022/10/04 00:42:40;;;;;;;0.40;0.20;;;;;;;12.25;73.61;95435.22;5116102;28;20469;-54
2022/10/04 00:45:23;;;;;;;0.40;0.30;;;;;;;12.19;73.73;95423.84;5116180;28;20427;-55
2022/10/04 00:48:39;;;;;;;0.60;0.30;;;;;;;12.49;73.11;95418.31;5116411;28;20426;-54
2022/10/04 00:51:19;;;;;;;0.40;0.20;;;;;;;12.42;72.89;95417.03;5088416;28;20486;-54
2022/10/04 00:54:06;;;;;;;0.40;0.20;;;;;;;12.12;77.03;95426.00;5116338;28;20426;-54
2022/10/04 00:56:40;;;;;;;0.50;0.33;;;;;;;12.36;76.12;95429.56;5116278;28;20454;-54
2022/10/04 00:59:33;;;;;;;0.40;0.20;;;;;;;12.39;74.15;95425.56;5116312;28;20433;-54
2022/10/04 01:02:05;;;;;;;0.40;0.40;;;;;;;12.55;74.46;95437.63;5115561;28;20482;-54
2022/10/04 01:04:41;;;;;;;0.40;0.20;;;;;;;11.84;72.02;95437.34;5116194;28;20810;-54
2022/10/04 01:07:12;;;;;;;0.40;0.30;;;;;;;11.24;72.99;95444.44;5115963;28;20414;-55
2022/10/04 01:09:49;;;;;;;0.40;0.30;;;;;;;10.63;77.78;95448.22;5116084;27;20467;-54
2022/10/04 01:12:38;;;;;;;0.40;0.30;;;;;;;11.27;77.08;95454.50;5116089;28;20433;-54
2022/10/04 01:15:12;;;;;;;0.40;0.30;;;;;;;10.96;78.88;95458.28;5115725;28;20429;-54
2022/10/04 01:17:41;;;;;;;7.47;0.50;;;;;;;10.54;81.91;95463.09;5115729;28;20436;-54
2022/10/04 01:20:33;;;;;;;0.50;0.40;;;;;;;10.38;83.75;95462.28;5115665;28;20445;-54
2022/10/04 01:23:04;;;;;;;0.50;0.30;;;;;;;11.39;79.83;95465.63;5115794;28;20807;-54
2022/10/04 01:25:53;;;;;;;0.40;0.27;;;;;;;10.85;79.31;95459.38;5115801;28;20431;-55
2022/10/04 01:28:21;;;;;;;0.40;0.20;;;;;;;11.37;77.96;95466.94;5110766;28;20445;-54
2022/10/04 01:30:50;;;;;;;0.40;0.20;;;;;;;11.93;75.13;95456.94;5115414;28;20437;-54
2022/10/04 01:33:18;;;;;;;0.97;0.50;;;;;;;10.60;80.67;95457.50;5115288;28;20421;-54
2022/10/04 01:35:47;;;;;;;0.77;0.77;;;;;;;10.63;85.23;95453.53;5115331;28;20422;-54
2022/10/04 01:38:16;;;;;;;0.60;0.60;;;;;;;11.11;84.36;95463.56;5115625;28;20438;-54
2022/10/04 01:40:49;;;;;;;0.70;0.70;;;;;;;11.55;88.02;95471.69;5115308;28;20433;-54
2022/10/04 01:43:23;;;;;;;0.40;0.30;;;;;;;11.59;77.73;95455.97;5115456;28;20466;-54
2022/10/04 01:45:57;;;;;;;0.40;0.27;;;;;;;11.46;77.16;95467.97;5115238;28;20422;-54
2022/10/04 01:48:32;;;;;;;0.40;0.20;;;;;;;11.37;76.82;95453.69;5115098;28;20985;-54
2022/10/04 01:51:06;;;;;;;0.60;0.60;;;;;;;11.53;76.38;95471.16;5114940;28;20477;-54
2022/10/04 01:53:43;;;;;;;0.40;0.30;;;;;;;11.66;74.91;95465.28;5115271;28;20434;-54
2022/10/04 01:56:17;;;;;;;0.40;0.20;;;;;;;11.70;74.15;95471.66;5114890;27;20941;-54
2022/10/04 01:58:49;;;;;;;0.87;0.30;;;;;;;11.59;74.89;95466.59;5114983;28;20411;-54
2022/10/04 02:01:25;;;;;;;0.73;0.73;;;;;;;11.68;75.08;95471.13;5114797;28;20429;-54
2022/10/04 02:03:59;;;;;;;0.40;0.20;;;;;;;11.84;74.74;95475.28;5115036;28;20474;-54
2022/10/04 02:06:34;;;;;;;0.40;0.30;;;;;;;11.32;75.44;95478.38;5115411;28;20429;-54
2022/10/04 02:09:09;;;;;;;0.40;0.37;;;;;;;11.25;76.07;95483.19;5114992;28;20791;-54
2022/10/04 02:11:40;;;;;;;0.40;0.20;;;;;;;11.53;74.54;95483.63;5114586;28;20421;-54
2022/10/04 02:14:15;;;;;;;0.40;0.30;;;;;;;11.17;73.38;95406.78;5114851;28;20447;-54
2022/10/04 02:16:46;;;;;;;0.40;0.20;;;;;;;11.89;73.29;95487.78;5114945;28;20425;-54
2022/10/04 02:19:16;;;;;;;0.40;0.20;;;;;;;11.52;73.80;95487.34;5114688;28;20446;-54
2022/10/04 02:21:45;;;;;;;0.40;0.30;;;;;;;11.84;72.72;95485.91;5114692;28;20522;-55
2022/10/04 02:24:16;;;;;;;0.40;0.20;;;;;;;11.92;72.81;95487.19;5114336;28;20470;-54
2022/10/04 02:26:50;;;;;;;0.50;0.30;;;;;;;11.32;72.53;95490.84;5114331;28;20421;-54
2022/10/04 02:29:19;;;;;;;0.40;0.20;;;;;;;11.60;73.26;95482.28;5114213;28;20426;-54
2022/10/04 02:34:35;;;;;;;0.40;0.20;;;;;;;11.73;72.67;95465.00;5114051;27;20456;-54
2022/10/04 02:37:05;;;;;;;0.40;0.20;;;;;;;11.89;72.98;95485.13;5114454;28;20431;-54
2022/10/04 02:39:40;;;;;;;0.30;0.20;;;;;;;11.51;73.69;95488.41;5114639;28;20794;-54
2022/10/04 02:42:14;;;;;;;0.40;0.20;;;;;;;10.89;74.41;95486.13;5114267;28;20897;-54
2022/10/04 02:44:45;;;;;;;0.40;0.20;;;;;;;11.15;75.46;95482.41;5113522;28;20427;-54
2022/10/04 02:47:18;;;;;;;1.90;0.60;;;;;;;11.15;74.43;95493.00;5113871;27;20892;-54
2022/10/04 02:49:49;;;;;;;0.40;0.20;;;;;;;10.82;75.22;95491.72;5113835;28;21026;-54
2022/10/04 02:52:24;;;;;;;0.70;0.30;;;;;;;10.15;74.24;95487.41;5113852;28;20422;-54
2022/10/04 02:55:01;;;;;;;0.60;0.40;;;;;;;10.23;74.51;95493.25;5113838;28;20449;-56
2022/10/04 02:57:32;;;;;;;0.60;0.50;;;;;;;9.92;75.61;95492.34;5113661;28;20422;-53
2022/10/04 03:00:17;;;;;;;0.50;0.30;;;;;;;9.68;75.55;95484.06;5113568;27;20441;-53
2022/10/04 03:03:14;;;;;;;0.40;0.20;;;;;;;9.97;74.01;95485.22;5113848;27;20489;-53
2022/10/04 03:05:46;;;;;;;0.50;0.30;;;;;;;10.55;73.34;95481.38;5113785;28;20419;-53
2022/10/04 03:08:14;;;;;;;0.40;0.30;;;;;;;10.54;73.16;95492.25;5113526;28;20418;-53
2022/10/04 03:10:45;;;;;;;0.43;0.27;;;;;;;10.47;74.08;95497.00;5113542;28;20422;-53
2022/10/04 03:13:15;;;;;;;0.40;0.30;;;;;;;10.35;75.69;95507.84;5113400;28;20421;-53
2022/10/04 03:15:43;;;;;;;0.43;0.30;;;;;;;9.77;78.44;95513.47;5113268;28;20425;-53
2022/10/04 03:18:11;;;;;;;0.43;0.30;;;;;;;9.49;79.49;95491.66;5113277;28;20505;-53
2022/10/04 03:20:41;;;;;;;0.40;0.30;;;;;;;9.43;81.18;95505.13;5113323;28;20422;-53
2022/10/04 03:23:11;;;;;;;0.40;0.30;;;;;;;9.52;81.98;95512.31;5113394;28;21004;-53
2022/10/04 03:25:48;;;;;;;0.47;0.30;;;;;;;9.27;82.92;95506.91;5113462;28;20794;-53
2022/10/04 03:28:18;;;;;;;0.40;0.20;;;;;;;9.63;83.50;95523.75;5113352;28;20891;-53
2022/10/04 03:30:48;;;;;;;0.50;0.30;;;;;;;8.69;85.73;95523.69;5113387;28;20428;-53
2022/10/04 03:33:27;;;;;;;0.50;0.33;;;;;;;8.88;87.78;95521.44;5113417;28;20489;-53
2022/10/04 03:35:59;;;;;;;0.40;0.30;;;;;;;9.30;85.24;95529.38;5112922;28;20905;-53
2022/10/04 03:38:28;;;;;;;0.40;0.20;;;;;;;9.46;83.19;95523.91;5113272;28;20419;-53
2022/10/04 03:41:01;;;;;;;0.40;0.30;;;;;;;9.48;83.24;95500.66;5113516;28;20422;-53
2022/10/04 03:43:33;;;;;;;0.50;0.37;;;;;;;9.22;82.69;95450.53;5112801;28;20470;-53
2022/10/04 03:46:04;;;;;;;0.40;0.30;;;;;;;9.27;85.23;95519.31;5113143;28;20768;-53
2022/10/04 03:48:37;;;;;;;0.50;0.30;;;;;;;9.28;86.28;95516.44;5113140;28;20414;-53
2022/10/04 03:51:12;;;;;;;0.50;0.33;;;;;;;9.57;84.92;95522.94;5112834;28;20470;-53
2022/10/04 03:53:43;;;;;;;0.70;0.30;;;;;;;9.72;83.23;95522.19;5113031;28;20422;-53
2022/10/04 03:56:17;;;;;;;0.43;0.43;;;;;;;9.81;83.24;95523.31;5112182;28;20425;-53
2022/10/04 03:58:47;;;;;;;0.50;0.30;;;;;;;9.02;86.52;95530.53;5112620;28;20421;-53
2022/10/04 04:01:27;;;;;;;0.40;0.20;;;;;;;8.57;89.38;95527.53;5112890;28;20903;-53
2022/10/04 04:04:03;;;;;;;0.40;0.30;;;;;;;8.90;90.07;95533.34;5112422;28;20552;-53
2022/10/04 04:06:42;;;;;;;0.70;0.50;;;;;;;9.26;86.86;95529.09;5112575;28;20425;-53
2022/10/04 04:09:20;;;;;;;0.40;0.20;;;;;;;9.50;83.37;95530.31;5112833;28;20429;-53
2022/10/04 04:11:53;;;;;;;0.50;0.50;;;;;;;9.35;84.95;95545.28;5112811;28;20505;-53
2022/10/04 04:14:24;;;;;;;0.40;0.30;;;;;;;9.13;85.40;95545.44;5112551;28;20429;-53
2022/10/04 04:16:54;;;;;;;0.40;0.30;;;;;;;8.91;87.77;95548.16;5112668;27;20423;-53
2022/10/04 04:19:25;;;;;;;4.47;0.47;;;;;;;8.50;87.77;95482.03;5112221;28;20814;-53
2022/10/04 04:21:56;;;;;;;0.40;0.30;;;;;;;9.28;86.13;95560.59;5112383;28;20427;-53
2022/10/04 04:24:30;;;;;;;0.50;0.40;;;;;;;9.38;85.38;95536.84;5111986;28;20828;-53
2022/10/04 04:27:04;;;;;;;0.40;0.20;;;;;;;9.52;85.54;95556.50;5111866;28;20453;-53
2022/10/04 04:29:42;;;;;;;0.40;0.30;;;;;;;9.51;85.21;95566.28;5112073;28;20418;-53
2022/10/04 04:32:17;;;;;;;0.40;0.20;;;;;;;9.43;83.72;95566.78;5111554;28;20434;-53
2022/10/04 04:34:51;;;;;;;0.40;0.20;;;;;;;9.99;81.04;95569.72;5112320;28;20421;-53
2022/10/04 04:37:20;;;;;;;0.40;0.20;;;;;;;10.02;80.76;95564.66;5111749;28;20426;-53
2022/10/04 04:39:54;;;;;;;0.40;0.30;;;;;;;10.11;80.56;95567.63;5112185;28;20429;-53
2022/10/04 04:42:30;;;;;;;0.40;0.20;;;;;;;10.25;79.85;95563.44;5111901;28;20514;-53
2022/10/04 04:45:01;;;;;;;0.40;0.20;;;;;;;10.43;79.76;95567.47;5112084;28;20990;-53
2022/10/04 04:47:33;;;;;;;0.40;0.30;;;;;;;10.47;78.59;95574.66;5112223;28;20426;-54
2022/10/04 04:50:06;;;;;;;0.43;0.43;;;;;;;10.47;78.85;95571.22;5111712;28;20481;-54
2022/10/04 04:52:36;;;;;;;0.40;0.20;;;;;;;10.36;79.18;95574.88;5111939;28;20428;-53
2022/10/04 04:55:05;;;;;;;0.40;0.40;;;;;;;10.72;77.86;95584.50;5111631;28;20426;-53
2022/10/04 04:57:35;;;;;;;0.63;0.63;;;;;;;10.60;78.11;95581.31;5111665;28;20429;-52
2022/10/04 05:00:04;;;;;;;0.40;0.20;;;;;;;10.77;77.11;95581.88;5111693;28;20451;-52
2022/10/04 05:02:34;;;;;;;0.43;0.40;;;;;;;10.76;75.93;95580.25;5112113;28;20430;-53
2022/10/04 05:05:23;;;;;;;0.60;0.47;;;;;;;10.50;76.80;95576.00;5111842;28;20462;-53
2022/10/04 05:08:09;;;;;;;0.40;0.27;;;;;;;10.19;78.30;95607.66;5113252;28;20433;-53
2022/10/04 05:10:40;;;;;;;0.80;0.70;;;;;;;9.47;81.98;95604.88;5116049;28;20429;-51
2022/10/04 05:13:11;;;;;;;0.50;0.43;;;;;;;9.43;82.30;95598.53;5115378;28;20428;-51
2022/10/04 05:15:41;;;;;;;0.50;0.50;;;;;;;9.12;83.65;95585.31;5115831;28;20418;-52
2022/10/04 05:18:21;;;;;;;1.10;0.63;;;;;;;10.01;81.61;95600.16;5114865;28;20427;-52
2022/10/04 05:20:54;;;;;;;2.23;0.60;;;;;;;10.50;78.49;95616.50;5115738;28;20417;-52
2022/10/04 05:23:22;;;;;;;1.53;0.90;;;;;;;10.28;78.94;95609.81;5114840;28;20429;-52
2022/10/04 05:25:52;;;;;;;0.73;0.73;;;;;;;10.72;76.89;95595.91;5115185;28;20473;-52
2022/10/04 05:28:21;;;;;;;0.40;0.30;;;;;;;10.91;77.19;95608.63;5115495;28;20946;-52
2022/10/04 05:31:09;;;;;;;0.97;0.53;;;;;;;11.19;75.30;95608.94;5114639;28;20429;-53
2022/10/04 05:33:45;;;;;;;0.40;0.40;;;;;;;11.40;74.95;95607.88;5115175;28;20452;-52
2022/10/04 05:36:50;;;;;;;0.40;0.40;;;;;;;10.99;74.63;95547.94;5115304;28;20423;-52
2022/10/04 05:39:26;;;;;;;0.60;0.40;;;;;;;11.15;75.37;95535.47;5083454;28;20443;-52
2022/10/04 05:42:01;;;;;;;0.40;0.30;;;;;;;11.37;74.33;95592.47;5114998;28;20426;-52
2022/10/04 05:44:35;;;;;;;0.50;0.40;;;;;;;11.48;74.37;95594.03;5115188;28;20841;-52
2022/10/04 05:47:08;;;;;;;0.40;0.30;;;;;;;10.95;75.13;95562.78;5114879;28;20896;-52
2022/10/04 05:49:43;;;;;;;0.90;0.90;;;;;;;11.73;81.94;95597.75;5114736;28;20473;-52
2022/10/04 05:52:16;;;;;;;0.40;0.30;;;;;;;11.53;76.37;95592.47;5114777;28;20425;-52
2022/10/04 05:54:45;;;;;;;0.50;0.50;;;;;;;11.24;78.52;95590.34;5114696;28;20446;-52
2022/10/04 05:57:38;;;;;;;0.60;0.40;;;;;;;10.50;73.35;95327.66;5114969;28;20426;-51
2022/10/04 06:00:17;;;;;;;0.57;0.50;;;;;;;11.78;75.46;95590.59;5114599;28;20423;-52
2022/10/04 06:03:09;;;;;;;3.20;3.10;;;;;;;11.63;74.29;95600.41;5114656;28;20453;-52
2022/10/04 06:05:48;;;;;;;3.37;1.90;;;;;;;10.32;75.69;95434.22;5114632;27;20483;-53
2022/10/04 06:08:26;;;;;;;0.70;0.60;;;;;;;11.71;76.07;95602.56;5114468;28;20782;-53
2022/10/04 06:11:12;;;;;;;2.23;0.60;;;;;;;12.33;74.34;95597.56;5114762;28;21127;-53
2022/10/04 06:14:19;;;;;;;0.90;0.90;;;;;;;13.14;72.31;95586.44;5114144;27;20970;-53
2022/10/04 06:17:13;;;;;;;0.87;0.83;;;;;;;13.93;68.16;95560.13;5080549;28;20434;-53
2022/10/04 06:20:29;;;;;;;0.60;0.50;;;;;;;14.21;68.49;95581.66;5113135;28;20912;-53
2022/10/04 06:23:00;;;;;;;0.57;0.57;;;;;;;14.01;70.10;95586.13;5114082;27;20921;-53
2022/10/04 06:25:33;;;;;;;1.20;1.20;;;;;;;12.88;71.30;95596.44;5114228;28;20470;-53
2022/10/04 06:28:14;;;;;;;0.40;0.30;;;;;;;12.81;72.03;95593.28;5114261;28;20426;-54
2022/10/04 06:30:55;;;;;;;1.07;0.97;;;;;;;12.60;72.52;95599.78;5113657;28;20440;-54
2022/10/04 06:33:52;;;;;;;0.87;0.87;;;;;;;12.45;72.39;95602.53;5114190;28;20432;-53
2022/10/04 06:36:35;;;;;;;1.43;1.43;;;;;;;13.33;70.45;95608.66;5114148;28;20442;-54
2022/10/04 06:39:29;;;;;;;0.60;0.50;;;;;;;14.40;63.76;95601.16;5113135;28;20422;-53
2022/10/04 06:42:32;;;;;;;0.50;0.30;;;;;;;14.31;62.15;95618.88;5114235;28;20426;-55
2022/10/04 06:45:23;;;;;;;0.50;0.40;;;;;;;15.76;60.68;95618.63;5103721;27;20489;-56
2022/10/04 06:48:18;;;;;;;0.40;0.30;;;;;;;17.18;64.71;95611.22;5113552;28;20430;-54
2022/10/04 06:50:51;;;;;;;0.50;0.30;;;;;;;16.74;55.71;95592.41;5113516;27;20474;-55
2022/10/04 06:53:26;;;;;;;0.40;0.30;;;;;;;17.31;55.23;95605.03;5113601;28;20426;-54
2022/10/04 06:56:09;;;;;;;1.13;0.37;;;;;;;18.57;54.68;95604.44;5113508;28;20426;-55
2022/10/04 06:58:58;;;;;;;0.50;0.50;;;;;;;18.67;51.11;95596.09;5113094;28;20426;-54
2022/10/04 07:01:29;;;;;;;0.53;0.53;;;;;;;19.06;50.56;95591.72;5113582;27;20430;-53
2022/10/04 07:04:05;;;;;;;0.50;0.30;;;;;;;19.75;50.22;95600.56;5113488;28;20427;-53
2022/10/04 07:06:42;;;;;;;0.57;0.40;;;;;;;19.63;49.50;95598.53;5113667;28;20499;-53
2022/10/04 07:09:19;;;;;;;1.03;0.77;;;;;;;19.86;49.13;95605.25;5113458;28;20524;-53
2022/10/04 07:11:53;;;;;;;0.60;0.60;;;;;;;19.76;50.16;95597.53;5113261;28;20430;-53
2022/10/04 07:14:29;;;;;;;0.93;0.57;;;;;;;19.84;49.29;95539.44;5113172;28;20426;-53
2022/10/04 07:17:04;;;;;;;0.80;0.57;;;;;;;20.78;47.66;95600.94;5113362;28;20445;-53
2022/10/04 07:19:36;;;;;;;0.60;0.50;;;;;;;20.79;45.81;95607.91;5113039;28;20424;-53
2022/10/04 07:22:17;;;;;;;0.53;0.53;;;;;;;20.42;45.40;95587.97;5113407;28;20933;-53
2022/10/04 07:25:14;;;;;;;0.60;0.50;;;;;;;19.49;47.36;95585.25;5113181;28;20433;-53
2022/10/04 07:29:19;;;;;;;0.50;0.40;;;;;;;21.28;45.99;95582.03;5113014;28;20789;-54
2022/10/04 07:30:46;;;;;;;4.73;0.70;;;;;;;20.04;45.76;95571.81;5112871;28;20443;-53
2022/10/04 07:33:18;;;;;;;1.67;1.37;;;;;;;20.43;46.21;95602.25;5112674;28;20454;-53
2022/10/04 07:35:50;;;;;;;0.50;0.40;;;;;;;20.36;46.33;95604.66;5112777;28;20423;-53
2022/10/04 07:38:26;;;;;;;0.67;0.50;;;;;;;20.56;45.65;95560.84;5112935;28;20450;-53
2022/10/04 07:41:10;;;;;;;0.80;0.30;;;;;;;21.16;44.14;95590.06;5112922;28;20430;-53
2022/10/04 07:43:48;;;;;;;0.60;0.60;;;;;;;21.96;44.92;95589.50;5112271;28;20924;-52
2022/10/04 07:46:24;;;;;;;0.50;0.40;;;;;;;22.13;43.87;95597.44;5112876;28;20470;-52
2022/10/04 07:48:53;;;;;;;0.50;0.37;;;;;;;21.27;43.93;95575.88;5112370;28;20907;-52
2022/10/04 07:51:32;;;;;;;0.50;0.40;;;;;;;20.84;46.52;95605.03;5112153;28;20482;-52
2022/10/04 07:54:11;;;;;;;0.60;0.40;;;;;;;21.16;42.73;95453.41;5112553;28;20427;-52
2022/10/04 07:56:47;;;;;;;1.03;1.00;;;;;;;21.80;42.69;95582.38;5112456;28;20422;-52
2022/10/04 07:59:33;;;;;;;0.50;0.40;;;;;;;21.90;42.89;95582.75;5112350;28;20437;-52
2022/10/04 08:02:23;;;;;;;0.60;0.40;;;;;;;22.57;42.44;95539.03;5112266;28;20435;-52
2022/10/04 08:05:11;;;;;;;0.40;0.30;;;;;;;22.73;43.23;95585.88;5112683;28;20476;-52
2022/10/04 08:07:53;;;;;;;0.43;0.40;;;;;;;23.26;42.44;95583.97;5112526;28;20427;-52
2022/10/04 08:10:30;;;;;;;0.53;0.53;;;;;;;23.43;42.01;95575.59;5112660;28;20434;-52
2022/10/04 08:13:12;;;;;;;0.50;0.30;;;;;;;23.97;42.36;95565.84;5111980;28;20422;-52
2022/10/04 08:15:42;;;;;;;0.83;0.50;;;;;;;24.03;38.66;95574.50;5112616;28;20424;-52
2022/10/04 08:18:22;;;;;;;1.57;1.47;;;;;;;24.27;38.83;95568.94;5112542;28;20419;-52
2022/10/04 08:20:57;;;;;;;0.73;0.73;;;;;;;25.00;38.83;95569.13;5112495;28;20426;-52
2022/10/04 08:23:53;;;;;;;0.83;0.80;;;;;;;25.84;38.96;95561.94;5112402;28;20434;-52
2022/10/04 08:26:40;;;;;;;0.50;0.30;;;;;;;27.01;36.32;95561.94;5112118;28;20467;-52
2022/10/04 08:29:46;;;;;;;0.70;0.60;;;;;;;27.47;34.78;95562.56;5111755;28;20944;-52
2022/10/04 08:32:29;;;;;;;0.43;0.30;;;;;;;25.18;37.38;95569.50;5112364;28;20816;-52
2022/10/04 08:35:27;;;;;;;0.60;0.50;;;;;;;23.80;39.17;95568.09;5112370;28;20428;-52
2022/10/04 08:38:13;;;;;;;1.13;0.80;;;;;;;23.48;39.60;95561.81;5105725;28;20439;-51
2022/10/04 08:41:19;;;;;;;8.43;1.07;;;;;;;24.29;38.09;95560.47;5112285;28;20439;-51
2022/10/04 08:44:34;;;;;;;0.40;0.40;;;;;;;25.46;36.37;95559.25;5114862;28;20430;-51
2022/10/04 08:47:49;;;;;;;0.73;0.73;;;;;;;26.25;32.50;95546.00;5116352;28;20463;-51
2022/10/04 08:51:06;;;;;;;3.00;0.70;;;;;;;27.00;30.06;95552.22;5116090;28;20482;-51
2022/10/04 08:54:19;;;;;;;0.30;0.20;;;;;;;26.72;30.33;95415.00;5115853;28;20424;-51
2022/10/04 08:57:06;;;;;;;0.50;0.40;;;;;;;27.47;31.70;95527.19;5116315;28;20847;-51
2022/10/04 09:00:04;;;;;;;0.50;0.40;;;;;;;27.58;31.78;95546.34;5115763;28;20424;-51
2022/10/04 09:02:58;;;;;;;0.40;0.30;;;;;;;29.09;27.57;95551.59;5115495;27;20432;-51
2022/10/04 09:05:52;;;;;;;0.30;0.20;;;;;;;28.78;29.91;95547.50;5115400;28;20428;-51
2022/10/04 09:08:57;;;;;;;0.30;0.20;;;;;;;28.92;28.16;95545.63;5113700;28;20443;-52
2022/10/04 09:11:45;;;;;;;0.30;0.30;;;;;;;27.32;28.28;95547.19;5115666;28;20849;-51
2022/10/04 09:14:50;;;;;;;0.30;0.30;;;;;;;28.07;27.67;95538.72;5115733;28;20777;-52
2022/10/04 09:17:23;;;;;;;0.40;0.30;;;;;;;28.91;26.97;95541.34;5115280;28;20435;-52
2022/10/04 09:19:56;;;;;;;0.30;0.20;;;;;;;29.46;26.92;95546.72;5115314;28;20420;-52
2022/10/04 09:22:48;;;;;;;0.50;0.30;;;;;;;29.61;27.28;95544.81;5115538;27;20436;-52
2022/10/04 09:25:47;;;;;;;0.50;0.30;;;;;;;27.47;27.51;95535.34;5115648;28;20428;-51
2022/10/04 09:28:42;;;;;;;0.30;0.20;;;;;;;28.02;27.70;95541.00;5115131;28;20434;-51
2022/10/04 09:31:32;;;;;;;0.40;0.30;;;;;;;28.85;26.96;95533.91;5115182;28;20477;-52
2022/10/04 09:34:12;;;;;;;0.30;0.20;;;;;;;28.46;26.42;95536.34;5114667;28;20416;-52
2022/10/04 09:37:13;;;;;;;0.30;0.20;;;;;;;29.41;25.16;95549.81;5114232;28;20905;-52
2022/10/04 09:40:20;;;;;;;0.30;0.20;;;;;;;30.14;24.50;95541.06;5114581;27;20434;-52
2022/10/04 09:43:13;;;;;;;0.30;0.27;;;;;;;28.91;25.38;95535.91;5097183;28;20431;-52
2022/10/04 09:46:10;;;;;;;0.30;0.30;;;;;;;29.29;25.38;95542.75;5115175;28;20440;-52
2022/10/04 09:48:45;;;;;;;0.30;0.30;;;;;;;29.01;25.29;95489.94;5114711;28;20459;-53
2022/10/04 09:51:41;;;;;;;0.40;0.30;;;;;;;30.54;25.70;95525.47;5115005;28;20477;-53
2022/10/04 09:54:36;;;;;;;0.40;0.30;;;;;;;31.62;22.97;95523.69;5113426;27;20442;-53
2022/10/04 09:57:27;;;;;;;0.40;0.30;;;;;;;30.63;24.15;95531.34;5114903;28;20887;-53
2022/10/04 10:00:13;;;;;;;0.40;0.40;;;;;;;29.84;24.73;95545.31;5114741;28;20900;-53
2022/10/04 10:03:08;;;;;;;0.40;0.30;;;;;;;29.51;26.09;95532.69;5114945;28;20510;-53
2022/10/04 10:06:05;;;;;;;0.40;0.30;;;;;;;28.18;25.19;95508.84;5115090;28;20442;-53
2022/10/04 10:08:41;;;;;;;0.30;0.30;;;;;;;28.88;24.06;95520.28;5112912;27;20431;-53
2022/10/04 10:14:45;;;;;;;0.30;0.30;;;;;;;30.36;23.53;95513.78;5114781;28;20435;-53
2022/10/04 10:17:24;;;;;;;0.30;0.27;;;;;;;26.17;24.10;95000.94;5114904;28;20453;-53
2022/10/04 10:20:35;;;;;;;0.40;0.30;;;;;;;29.29;24.79;95517.41;5114424;28;20426;-53
2022/10/04 10:23:42;;;;;;;0.40;0.33;;;;;;;31.00;22.70;95509.78;5114304;28;20431;-53
2022/10/04 10:26:38;;;;;;;0.40;0.30;;;;;;;29.89;24.70;95518.38;5051131;28;20565;-53
2022/10/04 10:29:31;;;;;;;0.30;0.20;;;;;;;28.27;25.81;95515.53;5111864;28;20450;-53
2022/10/04 10:32:15;;;;;;;0.30;0.20;;;;;;;26.50;26.86;95522.69;5114375;28;20426;-53
2022/10/04 10:35:24;;;;;;;0.50;0.50;;;;;;;27.13;26.55;95524.75;5114227;28;20419;-53
2022/10/04 10:38:10;;;;;;;0.37;0.27;;;;;;;26.89;26.69;95515.16;5113764;28;20435;-51
2022/10/04 10:40:52;;;;;;;0.30;0.30;;;;;;;26.18;27.47;95521.41;5113872;28;20420;-52
2022/10/04 10:43:45;;;;;;;0.30;0.30;;;;;;;25.23;28.36;95526.59;5114016;28;20422;-53
2022/10/04 10:46:27;;;;;;;0.30;0.20;;;;;;;25.41;29.29;95528.88;5113684;28;20439;-53
2022/10/04 10:49:32;;;;;;;0.30;0.20;;;;;;;25.49;28.76;95525.97;5113740;28;20515;-52
2022/10/04 10:52:33;;;;;;;0.30;0.20;;;;;;;24.62;29.38;95525.63;5113989;28;20781;-52
2022/10/04 10:55:29;;;;;;;0.40;0.30;;;;;;;25.12;29.67;95528.31;5082964;28;20435;-52
2022/10/04 10:58:21;;;;;;;0.37;0.27;;;;;;;25.84;29.16;95523.13;5113885;28;20416;-52
2022/10/04 11:00:59;;;;;;;0.30;0.20;;;;;;;26.12;28.79;95526.38;5113700;28;20427;-52
2022/10/04 11:03:56;;;;;;;0.40;0.40;;;;;;;27.17;27.73;95523.69;5113476;28;20423;-52
2022/10/04 11:06:53;;;;;;;0.30;0.20;;;;;;;28.45;25.77;95518.41;5112765;28;20424;-53
2022/10/04 11:09:40;;;;;;;0.40;0.20;;;;;;;27.85;25.42;95515.13;5079853;28;20431;-53
2022/10/04 11:12:41;;;;;;;0.30;0.20;;;;;;;28.30;24.36;95511.28;5113446;28;20431;-53
2022/10/04 11:15:48;;;;;;;0.30;0.20;;;;;;;27.15;26.02;95493.31;5113274;28;20420;-53
2022/10/04 11:18:46;;;;;;;0.40;0.30;;;;;;;26.81;26.66;95518.91;5113474;28;20544;-53
2022/10/04 11:21:49;;;;;;;0.40;0.30;;;;;;;26.88;26.63;95517.06;5113084;28;20437;-52
2022/10/04 11:25:01;;;;;;;0.30;0.20;;;;;;;26.62;26.77;95510.81;5113232;28;20428;-52
2022/10/04 11:27:44;;;;;;;0.30;0.20;;;;;;;26.93;26.37;95518.69;5112487;28;20537;-52
2022/10/04 11:30:23;;;;;;;0.30;0.30;;;;;;;26.62;25.65;95508.09;5112924;28;20435;-52
2022/10/04 11:33:25;;;;;;;0.30;0.20;;;;;;;26.70;27.26;95521.44;5112835;28;20419;-52
2022/10/04 11:36:22;;;;;;;0.30;0.20;;;;;;;26.08;27.76;95520.06;5112560;28;21011;-53
2022/10/04 11:39:21;;;;;;;0.30;0.20;;;;;;;26.91;27.45;95515.56;5112579;28;20416;-53
2022/10/04 11:41:56;;;;;;;2.60;0.37;;;;;;;27.45;25.35;95504.97;5113088;28;20424;-52
2022/10/04 11:44:40;;;;;;;0.40;0.30;;;;;;;28.29;24.85;95504.25;5112887;27;20426;-53
2022/10/04 11:47:22;;;;;;;0.40;0.30;;;;;;;28.65;25.16;95503.38;5112623;28;20467;-52
2022/10/04 11:50:11;;;;;;;0.30;0.30;;;;;;;29.20;24.65;95503.28;5111547;28;20475;-52
2022/10/04 11:53:14;;;;;;;0.80;0.60;;;;;;;29.73;23.48;95501.53;5112572;28;20905;-51
2022/10/04 11:56:03;;;;;;;0.30;0.30;;;;;;;28.68;23.78;95510.03;5083096;28;20434;-52
2022/10/04 11:58:49;;;;;;;0.30;0.30;;;;;;;29.04;24.25;95494.63;5112508;28;20526;-51
2022/10/04 12:01:46;;;;;;;0.37;0.30;;;;;;;29.72;23.67;95499.97;5112656;28;20804;-52
2022/10/04 12:04:53;;;;;;;0.40;0.30;;;;;;;31.21;22.11;95500.72;5112829;28;20478;-51
2022/10/04 12:07:45;;;;;;;0.50;0.40;;;;;;;31.93;22.15;95484.31;5109840;28;20475;-51
2022/10/04 12:10:24;;;;;;;0.30;0.20;;;;;;;31.47;21.72;95483.81;5112307;28;21007;-52
2022/10/04 12:13:24;;;;;;;0.30;0.20;;;;;;;29.96;22.66;95493.78;5112192;28;20426;-52
2022/10/04 12:16:15;;;;;;;0.40;0.30;;;;;;;28.65;23.81;95489.75;5112701;28;20438;-52
2022/10/04 12:19:29;;;;;;;0.30;0.30;;;;;;;28.27;25.07;95499.19;5109444;28;20506;-52
2022/10/04 12:22:25;;;;;;;0.40;0.30;;;;;;;28.37;24.15;95500.41;5112370;28;20911;-52
2022/10/04 12:25:29;;;;;;;0.33;0.30;;;;;;;29.02;24.57;95496.97;5112464;28;20430;-52
2022/10/04 12:28:39;;;;;;;0.30;0.30;;;;;;;28.50;24.77;95490.00;5110579;28;20474;-52
2022/10/04 12:31:23;;;;;;;0.33;0.30;;;;;;;28.40;24.50;95513.31;5096983;28;20435;-52
2022/10/04 12:33:58;;;;;;;0.37;0.30;;;;;;;30.29;23.94;95500.84;5112425;28;20445;-52
2022/10/04 12:36:41;;;;;;;0.50;0.33;;;;;;;29.91;23.95;95507.84;5112519;28;20441;-52
2022/10/04 12:39:27;;;;;;;0.40;0.30;;;;;;;28.12;24.31;95510.34;5111072;28;20423;-52
2022/10/04 12:42:08;;;;;;;0.30;0.30;;;;;;;28.25;25.73;95492.53;5112249;28;20425;-51
2022/10/04 12:44:47;;;;;;;0.30;0.20;;;;;;;29.60;24.49;95500.31;5112580;28;20426;-52
2022/10/04 12:47:56;;;;;;;0.30;0.20;;;;;;;30.12;23.52;95496.16;5111849;28;20936;-51
2022/10/04 12:50:42;;;;;;;0.30;0.20;;;;;;;31.30;22.69;95492.84;5112024;28;20470;-52